Time;durP1;ratioP1;P1;durP2;ratioP2;P2;SDS_P1;SDS_P2;PMS_P1;PMS_P2;Temp;Humidity;BMP_temperature;BMP_pressure;BME280_temperature;BME280_humidity;BME280_pressure;Samples;Min_cycle;Max_cycle;Signal;HPM_P1;HPM_P2
2022/01/24 00:01:16;;;;;;;9.90;8.73;;;4.30;99.90;;;;;;4986051;28;20678;-92
2022/01/24 00:03:55;;;;;;;10.43;9.33;;;4.20;99.90;;;;;;5004157;28;20249;-93
2022/01/24 00:06:30;;;;;;;10.97;8.83;;;4.20;99.90;;;;;;4987091;28;20574;-96
2022/01/24 00:09:01;;;;;;;10.50;9.13;;;4.20;99.90;;;;;;5005316;28;20242;-93
2022/01/24 00:11:41;;;;;;;10.37;9.27;;;4.30;99.90;;;;;;5011230;28;20202;-95
2022/01/24 00:14:48;;;;;;;11.27;9.07;;;4.40;99.90;;;;;;5034815;28;20193;-93
2022/01/24 00:17:28;;;;;;;9.63;8.70;;;4.30;99.90;;;;;;5034588;28;20276;-93
2022/01/24 00:28:27;;;;;;;9.70;8.70;;;4.20;99.90;;;;;;5033653;28;20231;-93
2022/01/24 00:30:59;;;;;;;9.77;8.43;;;4.20;99.90;;;;;;5023718;28;20236;-93
2022/01/24 00:33:31;;;;;;;9.57;8.10;;;4.20;99.90;;;;;;5023703;28;20202;-93
2022/01/24 00:36:02;;;;;;;8.73;7.70;;;4.20;99.90;;;;;;5022522;28;20209;-93
2022/01/24 00:41:13;;;;;;;8.83;7.00;;;4.10;99.90;;;;;;5007418;23;20249;-94
2022/01/24 00:43:59;;;;;;;10.33;8.13;;;4.10;99.90;;;;;;5000293;28;20690;-94
2022/01/24 00:46:35;;;;;;;9.53;7.70;;;4.00;99.90;;;;;;4984915;28;20671;-94
2022/01/24 00:49:24;;;;;;;9.60;7.70;;;4.00;99.90;;;;;;4999864;28;20237;-93
2022/01/24 00:54:48;;;;;;;8.37;7.50;;;4.00;99.90;;;;;;4999475;28;20219;-92
2022/01/24 00:57:21;;;;;;;9.20;8.17;;;4.10;99.90;;;;;;4998156;28;20206;-93
2022/01/24 00:59:52;;;;;;;9.87;7.87;;;4.00;99.90;;;;;;5007891;28;20613;-93
2022/01/24 01:02:23;;;;;;;10.27;7.87;;;4.00;99.90;;;;;;5013052;28;20266;-93
2022/01/24 01:05:10;;;;;;;8.73;7.00;;;3.90;99.90;;;;;;5012659;28;20210;-93
2022/01/24 01:07:54;;;;;;;9.77;7.27;;;3.90;99.90;;;;;;4994006;28;20238;-93
2022/01/24 01:18:50;;;;;;;11.87;8.17;;;4.00;99.90;;;;;;5013546;28;20266;-94
2022/01/24 01:21:22;;;;;;;10.37;7.97;;;3.90;99.90;;;;;;5014646;28;20210;-94
2022/01/24 01:23:58;;;;;;;11.20;9.07;;;3.80;99.90;;;;;;5011285;28;20210;-93
2022/01/24 01:26:34;;;;;;;10.40;7.97;;;3.90;99.90;;;;;;4995339;28;20205;-95
2022/01/24 01:31:58;;;;;;;10.07;8.23;;;3.80;99.90;;;;;;5035596;23;20312;-94
2022/01/24 01:54:30;;;;;;;10.43;8.40;;;3.60;99.90;;;;;;5012117;28;20223;-92
2022/01/24 01:57:03;;;;;;;15.07;9.43;;;3.60;99.90;;;;;;5012088;28;20214;-94
2022/01/24 01:59:35;;;;;;;10.77;8.97;;;3.70;99.90;;;;;;5011203;28;20233;-93
2022/01/24 02:02:06;;;;;;;12.97;8.90;;;3.70;99.90;;;;;;4993629;28;20203;-92
2022/01/24 02:04:43;;;;;;;12.73;9.17;;;3.70;99.90;;;;;;4994493;28;20206;-92
2022/01/24 02:07:15;;;;;;;12.70;9.60;;;3.60;99.90;;;;;;5012116;28;20217;-92
2022/01/24 02:09:46;;;;;;;10.93;9.13;;;3.60;99.90;;;;;;5010402;28;20238;-92
2022/01/24 02:12:23;;;;;;;14.53;10.07;;;3.60;99.90;;;;;;5017332;28;20218;-92
2022/01/24 02:14:58;;;;;;;11.00;9.00;;;3.60;99.90;;;;;;5030986;28;20209;-93
2022/01/24 02:17:41;;;;;;;11.77;8.60;;;3.60;99.90;;;;;;5031519;28;20631;-93
2022/01/24 02:20:37;;;;;;;14.43;8.63;;;3.60;99.90;;;;;;5014634;28;20224;-93
2022/01/24 02:23:37;;;;;;;15.63;8.77;;;3.60;99.90;;;;;;5033693;28;20249;-93
2022/01/24 02:26:11;;;;;;;15.53;9.53;;;3.60;99.90;;;;;;5035455;28;20205;-93
2022/01/24 02:29:00;;;;;;;16.40;9.90;;;3.60;99.90;;;;;;5035507;28;20252;-94
2022/01/24 02:34:29;;;;;;;13.80;10.77;;;3.60;99.90;;;;;;5173951;22;20241;-94
2022/01/24 02:37:03;;;;;;;19.73;10.30;;;3.60;99.90;;;;;;5014750;28;20194;-94
2022/01/24 02:39:55;;;;;;;17.43;10.37;;;3.50;99.90;;;;;;5017506;28;20191;-94
2022/01/24 02:48:26;;;;;;;37.77;12.03;;;3.50;99.90;;;;;;5017258;28;20223;-93
2022/01/24 02:51:18;;;;;;;31.20;11.87;;;3.50;99.90;;;;;;4997708;28;20211;-94
2022/01/24 02:53:50;;;;;;;25.23;10.37;;;3.40;99.90;;;;;;5012011;28;20221;-92
2022/01/24 02:56:25;;;;;;;35.07;11.40;;;3.40;99.90;;;;;;4993949;28;20297;-94
2022/01/24 02:58:56;;;;;;;20.47;11.40;;;3.40;99.90;;;;;;5009788;28;20202;-93
2022/01/24 03:01:29;;;;;;;30.17;11.83;;;3.40;99.90;;;;;;5009211;28;20267;-94
2022/01/24 03:04:01;;;;;;;71.17;14.70;;;3.40;99.90;;;;;;5011161;28;20230;-92
2022/01/24 03:06:33;;;;;;;21.77;11.60;;;3.40;99.90;;;;;;5011123;28;20203;-94
2022/01/24 03:09:06;;;;;;;24.67;12.77;;;3.40;99.90;;;;;;5010279;28;20265;-93
2022/01/24 03:14:41;;;;;;;52.00;11.30;;;3.50;99.90;;;;;;4974671;29;20268;-94
2022/01/24 03:17:16;;;;;;;18.07;11.23;;;3.50;99.90;;;;;;5006062;28;20206;-93
2022/01/24 03:19:47;;;;;;;67.97;12.80;;;3.50;99.90;;;;;;5014321;28;20213;-95
2022/01/24 03:22:18;;;;;;;77.27;12.90;;;3.40;99.90;;;;;;5014880;28;20233;-93
2022/01/24 03:24:50;;;;;;;46.83;12.40;;;3.50;99.90;;;;;;5014465;28;20202;-92
2022/01/24 03:27:26;;;;;;;70.00;12.30;;;3.40;99.90;;;;;;5013525;28;20360;-93
2022/01/24 03:29:57;;;;;;;28.30;10.30;;;3.40;99.90;;;;;;4997757;28;20234;-94
2022/01/24 03:32:28;;;;;;;60.63;12.43;;;3.40;99.90;;;;;;5012325;28;20230;-93
2022/01/24 03:35:00;;;;;;;72.33;12.33;;;3.30;99.90;;;;;;4994736;28;20212;-93
2022/01/24 03:37:32;;;;;;;310.03;20.00;;;3.30;99.90;;;;;;4991882;28;20210;-94
2022/01/24 03:40:05;;;;;;;129.07;13.80;;;3.30;99.90;;;;;;5013196;28;20242;-93
2022/01/24 03:42:38;;;;;;;395.10;21.27;;;3.20;99.90;;;;;;5013978;28;20206;-92
2022/01/24 03:45:11;;;;;;;335.87;21.97;;;3.20;99.90;;;;;;5012760;28;20342;-93
2022/01/24 03:48:00;;;;;;;290.70;21.23;;;3.10;99.90;;;;;;5018837;28;20192;-93
2022/01/24 03:50:32;;;;;;;131.80;12.63;;;3.00;99.90;;;;;;5014511;28;20218;-94
2022/01/24 03:53:04;;;;;;;54.27;10.03;;;3.00;99.90;;;;;;5013861;28;20190;-93
2022/01/24 03:55:36;;;;;;;282.57;20.13;;;3.00;99.90;;;;;;5014207;28;20241;-93
2022/01/24 03:58:11;;;;;;;472.50;23.13;;;3.00;99.90;;;;;;5013671;28;20245;-94
2022/01/24 04:00:42;;;;;;;154.83;13.73;;;3.00;99.90;;;;;;5014761;28;20210;-94
2022/01/24 04:03:14;;;;;;;356.97;21.23;;;2.90;99.90;;;;;;5014949;28;20203;-93
2022/01/24 04:05:49;;;;;;;116.80;14.33;;;2.90;99.90;;;;;;4998327;28;20218;-93
2022/01/24 04:11:09;;;;;;;89.40;12.13;;;2.90;99.90;;;;;;4996962;23;20255;-93
2022/01/24 04:13:44;;;;;;;112.43;13.50;;;2.90;99.90;;;;;;4981277;28;20202;-93
2022/01/24 04:16:28;;;;;;;125.47;13.83;;;2.90;99.90;;;;;;4987241;28;20219;-93
2022/01/24 04:19:17;;;;;;;134.97;13.63;;;2.80;99.90;;;;;;4999782;28;20210;-92
2022/01/24 04:21:48;;;;;;;151.27;12.77;;;2.80;99.90;;;;;;5015060;28;20182;-93
2022/01/24 04:24:23;;;;;;;87.30;11.13;;;2.80;99.90;;;;;;5016760;28;20199;-91
2022/01/24 04:26:53;;;;;;;84.40;11.77;;;2.80;99.90;;;;;;5012294;28;20230;-93
2022/01/24 04:29:26;;;;;;;76.33;10.30;;;2.80;99.90;;;;;;5018033;28;20249;-91
2022/01/24 04:31:58;;;;;;;54.27;10.50;;;2.80;99.90;;;;;;5019016;28;20210;-92
2022/01/24 04:34:29;;;;;;;79.37;12.00;;;2.70;99.90;;;;;;5014482;28;20206;-91
2022/01/24 04:37:01;;;;;;;167.63;15.63;;;2.70;99.90;;;;;;5010100;28;20720;-92
2022/01/24 04:39:32;;;;;;;88.73;12.90;;;2.80;99.90;;;;;;4996828;28;20274;-93
2022/01/24 04:42:09;;;;;;;81.30;11.70;;;2.70;99.90;;;;;;4993735;28;20231;-93
2022/01/24 04:47:33;;;;;;;36.70;11.90;;;2.80;99.90;;;;;;4993480;28;20251;-94
2022/01/24 04:50:37;;;;;;;136.53;13.37;;;2.70;99.90;;;;;;4988550;28;20234;-94
2022/01/24 04:53:15;;;;;;;118.33;13.07;;;2.80;99.90;;;;;;4983643;28;20211;-94
2022/01/24 04:55:46;;;;;;;187.87;13.97;;;2.70;99.90;;;;;;4994449;28;20225;-93
2022/01/24 04:58:18;;;;;;;276.47;15.90;;;2.70;99.90;;;;;;4997152;28;20230;-94
2022/01/24 05:00:52;;;;;;;279.87;16.67;;;2.60;99.90;;;;;;4999859;28;20198;-92
2022/01/24 05:03:24;;;;;;;70.23;10.90;;;2.60;99.90;;;;;;5000378;28;20207;-94
2022/01/24 05:05:56;;;;;;;235.17;15.50;;;2.60;99.90;;;;;;4983722;28;20226;-95
2022/01/24 05:08:29;;;;;;;96.30;11.77;;;2.60;99.90;;;;;;4999614;28;20352;-95
2022/01/24 05:11:05;;;;;;;261.97;18.50;;;2.60;99.90;;;;;;4976773;28;20256;-94
2022/01/24 05:24:49;;;;;;;184.50;18.13;;;2.60;99.90;;;;;;4995939;28;20215;-93
2022/01/24 05:27:20;;;;;;;244.77;17.40;;;2.60;99.90;;;;;;4992119;28;20210;-94
2022/01/24 05:29:51;;;;;;;178.00;15.60;;;2.70;99.90;;;;;;4987288;28;20262;-94
2022/01/24 05:32:25;;;;;;;67.93;10.30;;;2.70;99.90;;;;;;4991641;28;20205;-93
2022/01/24 05:34:56;;;;;;;111.60;11.50;;;2.60;99.90;;;;;;4982378;28;20211;-92
2022/01/24 05:37:27;;;;;;;60.47;11.73;;;2.60;99.90;;;;;;4977615;28;20247;-94
2022/01/24 05:39:58;;;;;;;93.87;16.47;;;2.60;99.90;;;;;;4978706;28;20235;-93
2022/01/24 05:45:43;;;;;;;119.17;13.53;;;2.60;99.90;;;;;;4945691;28;20211;-94
2022/01/24 05:48:16;;;;;;;108.67;13.10;;;2.60;99.90;;;;;;4981325;28;20211;-93
2022/01/24 05:50:47;;;;;;;40.60;9.57;;;2.60;99.90;;;;;;4980091;28;20337;-93
2022/01/24 05:53:18;;;;;;;134.50;12.63;;;2.60;99.90;;;;;;4981057;28;20242;-94
2022/01/24 05:55:49;;;;;;;38.23;9.97;;;2.60;99.90;;;;;;4990702;28;20207;-92
2022/01/24 05:58:21;;;;;;;57.63;10.67;;;2.60;99.90;;;;;;4994843;28;20218;-93
2022/01/24 06:00:52;;;;;;;144.50;12.03;;;2.60;99.90;;;;;;4994261;28;20210;-93
2022/01/24 06:03:25;;;;;;;53.23;10.17;;;2.60;99.90;;;;;;4966857;28;20226;-93
2022/01/24 06:05:57;;;;;;;40.73;9.87;;;2.70;99.90;;;;;;4992059;28;20266;-94
2022/01/24 06:08:30;;;;;;;44.50;10.00;;;2.60;99.90;;;;;;5234335;23;20234;-94
2022/01/24 06:11:04;;;;;;;100.27;11.87;;;2.70;99.90;;;;;;4993334;28;20644;-94
2022/01/24 06:13:34;;;;;;;33.00;10.30;;;2.60;99.90;;;;;;4981462;28;20246;-92
2022/01/24 06:16:06;;;;;;;33.97;10.03;;;2.50;99.90;;;;;;4980927;28;20206;-94
2022/01/24 06:18:39;;;;;;;46.58;10.63;;;2.50;99.90;;;;;;4624758;28;10000144;-93
2022/01/24 06:21:12;;;;;;;28.83;10.27;;;2.50;99.90;;;;;;4985712;28;20221;-93
2022/01/24 06:23:43;;;;;;;52.00;10.73;;;2.50;99.90;;;;;;5008560;28;20229;-93
2022/01/24 06:26:15;;;;;;;42.77;9.53;;;2.50;99.90;;;;;;5007327;28;20190;-93
2022/01/24 06:28:46;;;;;;;52.77;9.77;;;2.60;99.90;;;;;;4983402;28;20245;-93
2022/01/24 06:31:18;;;;;;;24.03;8.80;;;2.60;99.90;;;;;;4998839;28;20242;-94
2022/01/24 06:33:50;;;;;;;44.37;8.97;;;2.60;99.90;;;;;;4999757;28;20213;-93
2022/01/24 06:36:21;;;;;;;36.83;9.47;;;2.60;99.90;;;;;;4998136;28;20202;-94
2022/01/24 06:38:52;;;;;;;38.60;10.17;;;2.70;99.90;;;;;;4999345;28;20261;-93
2022/01/24 06:41:29;;;;;;;31.33;8.30;;;2.60;99.90;;;;;;4998650;28;20238;-94
2022/01/24 06:43:59;;;;;;;29.83;8.80;;;2.60;99.90;;;;;;4992432;28;20214;-94
2022/01/24 06:46:32;;;;;;;26.20;7.90;;;2.60;99.90;;;;;;4986941;28;20262;-94
2022/01/24 06:49:05;;;;;;;22.37;8.40;;;2.60;99.90;;;;;;4984858;28;20214;-94
2022/01/24 06:51:38;;;;;;;34.53;8.53;;;2.60;99.90;;;;;;4985107;28;20235;-94
2022/01/24 06:54:10;;;;;;;53.73;10.43;;;2.40;99.90;;;;;;4967585;28;20215;-93
2022/01/24 06:56:41;;;;;;;24.60;8.87;;;2.40;99.90;;;;;;4986185;28;20234;-95
2022/01/24 06:59:13;;;;;;;37.67;8.77;;;2.40;99.90;;;;;;4985945;28;20203;-94
2022/01/24 07:01:45;;;;;;;37.70;7.87;;;2.50;99.90;;;;;;4980051;28;20211;-95
2022/01/24 07:04:18;;;;;;;21.07;8.30;;;2.50;99.90;;;;;;4978822;28;20211;-94
2022/01/24 07:06:51;;;;;;;78.10;9.37;;;2.50;99.90;;;;;;4961062;28;20210;-95
2022/01/24 07:09:23;;;;;;;31.33;8.10;;;2.50;99.90;;;;;;4979882;28;20643;-95
2022/01/24 07:11:54;;;;;;;48.03;8.93;;;2.40;99.90;;;;;;4979280;28;20230;-94
2022/01/24 07:14:25;;;;;;;31.40;8.23;;;2.30;99.90;;;;;;4980468;28;20207;-94
2022/01/24 07:17:11;;;;;;;33.60;8.50;;;2.40;99.90;;;;;;4983268;28;20711;-94
2022/01/24 07:19:44;;;;;;;29.57;7.97;;;2.50;99.90;;;;;;4996853;28;20271;-94
2022/01/24 07:22:16;;;;;;;32.67;8.13;;;2.50;99.90;;;;;;4997240;28;20222;-92
2022/01/24 07:24:47;;;;;;;36.00;8.70;;;2.30;99.90;;;;;;4995182;28;20210;-93
2022/01/24 07:27:19;;;;;;;24.93;7.90;;;2.10;99.90;;;;;;4977933;28;20217;-93
2022/01/24 07:29:50;;;;;;;81.20;10.70;;;2.10;99.90;;;;;;4975737;28;20257;-94
2022/01/24 07:32:22;;;;;;;35.40;9.30;;;2.00;99.90;;;;;;4982864;28;20239;-93
2022/01/24 07:34:55;;;;;;;40.27;8.73;;;2.00;99.90;;;;;;4983661;28;20215;-93
2022/01/24 07:37:27;;;;;;;37.83;8.67;;;2.10;99.90;;;;;;4987292;28;20213;-93
2022/01/24 07:39:58;;;;;;;30.63;9.33;;;2.30;99.90;;;;;;4987031;28;20269;-92
2022/01/24 07:42:50;;;;;;;36.27;9.30;;;2.30;99.90;;;;;;4999633;28;20281;-93
2022/01/24 07:45:21;;;;;;;46.10;9.20;;;2.40;99.90;;;;;;4998196;28;20222;-93
2022/01/24 07:47:52;;;;;;;38.93;8.80;;;2.50;99.90;;;;;;4998913;28;20206;-93
2022/01/24 07:50:28;;;;;;;45.20;9.90;;;2.50;99.90;;;;;;4980632;28;20229;-93
2022/01/24 07:53:00;;;;;;;41.57;9.63;;;2.50;99.90;;;;;;4997540;28;20625;-94
2022/01/24 07:55:33;;;;;;;24.23;8.83;;;2.50;99.90;;;;;;4997805;28;20297;-93
2022/01/24 07:58:04;;;;;;;28.33;9.17;;;2.50;99.90;;;;;;4996802;28;20281;-94
2022/01/24 08:00:36;;;;;;;33.23;10.70;;;2.40;99.90;;;;;;4999116;28;20332;-94
2022/01/24 08:03:07;;;;;;;31.50;8.73;;;2.50;99.90;;;;;;5004671;28;20293;-95
2022/01/24 08:05:40;;;;;;;41.63;9.27;;;2.50;99.90;;;;;;5000664;28;20213;-94
2022/01/24 08:08:12;;;;;;;58.23;8.63;;;2.50;99.90;;;;;;4993622;28;20289;-94
2022/01/24 08:10:44;;;;;;;57.53;9.87;;;2.60;99.90;;;;;;4986812;28;20249;-94
2022/01/24 08:13:16;;;;;;;53.87;8.70;;;2.50;99.90;;;;;;4993041;28;20222;-94
2022/01/24 08:15:49;;;;;;;71.93;9.53;;;2.40;99.90;;;;;;4973529;28;20271;-94
2022/01/24 08:18:20;;;;;;;24.30;8.17;;;2.40;99.90;;;;;;4990733;28;20223;-93
2022/01/24 08:20:53;;;;;;;59.30;9.10;;;2.40;99.90;;;;;;4993077;28;20339;-94
2022/01/24 08:23:27;;;;;;;57.87;9.70;;;2.50;99.90;;;;;;4991704;28;20194;-94
2022/01/24 08:25:58;;;;;;;69.57;8.43;;;2.40;99.90;;;;;;5004560;28;20214;-92
2022/01/24 08:28:30;;;;;;;59.83;9.30;;;2.40;99.90;;;;;;5009406;28;20206;-93
2022/01/24 08:31:02;;;;;;;95.87;10.30;;;2.40;99.90;;;;;;5009111;28;20206;-93
2022/01/24 08:33:33;;;;;;;64.60;10.00;;;2.50;99.90;;;;;;5002520;28;20548;-92
2022/01/24 08:36:06;;;;;;;70.33;9.27;;;2.50;99.90;;;;;;4983273;28;20207;-93
2022/01/24 08:38:46;;;;;;;38.83;8.40;;;2.40;99.90;;;;;;5000105;28;20265;-93
2022/01/24 08:41:25;;;;;;;75.57;9.50;;;2.40;99.90;;;;;;5001156;28;20301;-94
2022/01/24 08:44:11;;;;;;;90.53;9.43;;;2.40;99.90;;;;;;5000371;28;20221;-94
2022/01/24 08:46:45;;;;;;;70.67;9.57;;;2.40;99.90;;;;;;4998514;28;20213;-94
2022/01/24 08:49:17;;;;;;;103.40;9.97;;;2.50;99.90;;;;;;5001179;28;20628;-94
2022/01/24 08:51:50;;;;;;;35.60;8.60;;;2.50;99.90;;;;;;5000930;28;20249;-94
2022/01/24 08:54:35;;;;;;;43.17;8.73;;;2.50;99.90;;;;;;5003234;28;20562;-94
2022/01/24 08:57:07;;;;;;;26.47;8.47;;;2.40;99.90;;;;;;5008661;28;20206;-94
2022/01/24 08:59:39;;;;;;;46.27;9.37;;;2.50;99.90;;;;;;5007275;28;20229;-94
2022/01/24 09:02:12;;;;;;;27.87;7.60;;;2.50;99.90;;;;;;5011044;28;20213;-94
2022/01/24 09:04:44;;;;;;;61.47;9.30;;;2.50;99.90;;;;;;5000824;28;20225;-94
2022/01/24 09:07:20;;;;;;;52.97;8.33;;;2.50;99.90;;;;;;4999907;28;20211;-94
2022/01/24 09:09:51;;;;;;;96.53;10.37;;;2.50;99.90;;;;;;4984238;28;20221;-94
2022/01/24 09:12:23;;;;;;;150.83;11.90;;;2.50;99.90;;;;;;5000940;28;20291;-94
2022/01/24 09:14:54;;;;;;;104.23;9.80;;;2.50;99.90;;;;;;5006089;28;20229;-94
2022/01/24 09:17:26;;;;;;;90.10;10.53;;;2.40;99.90;;;;;;4996858;28;20234;-93
2022/01/24 09:19:59;;;;;;;85.17;10.10;;;2.40;99.90;;;;;;5015148;28;20250;-94
2022/01/24 09:22:47;;;;;;;160.03;11.53;;;2.40;99.90;;;;;;5014670;28;20217;-94
2022/01/24 09:25:20;;;;;;;83.30;9.20;;;2.40;99.90;;;;;;5015263;28;20203;-94
2022/01/24 09:27:51;;;;;;;92.70;10.33;;;2.40;99.90;;;;;;5008213;28;20217;-94
2022/01/24 09:30:24;;;;;;;96.47;8.77;;;2.40;99.90;;;;;;5001200;28;20209;-93
2022/01/24 09:32:56;;;;;;;198.50;12.53;;;2.40;99.90;;;;;;4975351;28;20235;-94
2022/01/24 09:35:29;;;;;;;134.17;10.93;;;2.40;99.90;;;;;;4982256;28;20287;-93
2022/01/24 09:38:04;;;;;;;86.97;9.33;;;2.30;99.90;;;;;;4982714;28;20247;-94
2022/01/24 09:40:36;;;;;;;90.27;8.83;;;2.30;99.90;;;;;;4984876;28;20234;-94
2022/01/24 09:43:07;;;;;;;52.17;8.40;;;2.30;99.90;;;;;;4998458;28;20203;-93
2022/01/24 09:45:38;;;;;;;86.07;8.93;;;2.30;99.90;;;;;;4997897;28;20203;-94
2022/01/24 09:48:10;;;;;;;133.27;9.67;;;2.30;99.90;;;;;;4996020;28;20218;-95
2022/01/24 09:50:41;;;;;;;76.80;10.90;;;2.40;99.90;;;;;;5011881;28;20210;-94
2022/01/24 09:53:15;;;;;;;85.60;8.87;;;2.30;99.90;;;;;;5003542;28;20268;-94
2022/01/24 09:55:46;;;;;;;161.47;11.13;;;2.30;99.90;;;;;;4994489;28;20207;-94
2022/01/24 09:58:18;;;;;;;107.37;11.37;;;2.30;99.90;;;;;;4980682;28;20234;-93
2022/01/24 10:00:50;;;;;;;77.00;9.00;;;2.30;99.90;;;;;;4963085;28;20215;-93
2022/01/24 10:03:23;;;;;;;110.17;11.27;;;2.30;99.90;;;;;;4979689;28;20210;-93
2022/01/24 10:06:11;;;;;;;77.97;9.27;;;2.30;99.90;;;;;;4979855;28;20253;-93
2022/01/24 10:08:51;;;;;;;40.17;7.63;;;2.30;99.90;;;;;;4979645;28;20216;-93
2022/01/24 10:11:27;;;;;;;86.00;8.87;;;2.30;99.90;;;;;;4979170;28;20202;-94
2022/01/24 10:16:48;;;;;;;22.07;8.00;;;2.00;99.90;;;;;;4978150;28;20735;-94
2022/01/24 10:19:20;;;;;;;50.47;8.03;;;1.90;99.90;;;;;;4988674;28;20238;-94
2022/01/24 10:22:04;;;;;;;43.90;7.73;;;2.00;99.90;;;;;;4997156;28;20719;-93
2022/01/24 10:24:40;;;;;;;53.27;9.00;;;2.00;99.90;;;;;;4981432;28;20709;-94
2022/01/24 10:27:15;;;;;;;40.17;8.47;;;2.10;99.90;;;;;;4997763;28;20370;-94
2022/01/24 10:29:53;;;;;;;49.73;11.87;;;2.10;99.90;;;;;;4997889;28;20245;-93
2022/01/24 10:32:46;;;;;;;68.63;9.47;;;2.20;99.90;;;;;;4997957;28;20240;-93
2022/01/24 10:35:30;;;;;;;71.93;8.57;;;2.30;99.90;;;;;;4998013;28;20206;-94
2022/01/24 10:38:28;;;;;;;84.97;8.70;;;2.30;99.90;;;;;;4994989;28;20249;-94
2022/01/24 10:41:12;;;;;;;59.50;7.87;;;2.40;99.90;;;;;;4980475;28;20210;-93
2022/01/24 10:43:43;;;;;;;125.10;10.47;;;2.40;99.90;;;;;;4981417;28;20210;-94
2022/01/24 10:46:24;;;;;;;70.53;8.13;;;2.40;99.90;;;;;;4978659;28;20297;-93
2022/01/24 10:49:06;;;;;;;40.30;7.87;;;2.40;99.90;;;;;;4981010;28;20499;-93
2022/01/24 10:51:40;;;;;;;47.73;7.90;;;2.40;99.90;;;;;;4981245;28;20626;-94
2022/01/24 10:54:15;;;;;;;35.47;8.13;;;2.40;99.90;;;;;;4978595;28;20234;-94
2022/01/24 10:56:48;;;;;;;51.27;9.73;;;2.40;99.90;;;;;;4978882;28;20216;-93
2022/01/24 10:59:22;;;;;;;31.80;9.03;;;2.50;99.90;;;;;;4980799;28;20652;-94
2022/01/24 11:01:55;;;;;;;75.97;9.03;;;2.40;99.90;;;;;;4977974;28;20222;-95
2022/01/24 11:04:28;;;;;;;50.40;8.37;;;2.40;99.90;;;;;;4978593;28;20613;-93
2022/01/24 11:07:01;;;;;;;148.27;13.37;;;2.30;99.90;;;;;;4964461;28;20210;-93
2022/01/24 11:09:33;;;;;;;72.60;8.53;;;2.30;99.90;;;;;;4980331;28;20314;-93
2022/01/24 11:12:10;;;;;;;134.67;10.10;;;2.30;99.90;;;;;;4980232;28;20707;-94
2022/01/24 11:14:50;;;;;;;62.57;8.43;;;2.10;99.90;;;;;;4980357;28;20226;-93
2022/01/24 11:17:29;;;;;;;98.03;8.63;;;2.10;99.90;;;;;;4979688;28;20218;-94
2022/01/24 11:20:02;;;;;;;63.83;8.20;;;2.00;99.90;;;;;;4964874;28;20238;-93
2022/01/24 11:22:40;;;;;;;22.50;6.93;;;2.00;99.90;;;;;;4983020;28;20211;-93
2022/01/24 11:25:12;;;;;;;30.87;7.00;;;2.10;99.90;;;;;;4980021;28;20266;-93
2022/01/24 11:27:47;;;;;;;52.47;6.47;;;2.20;99.90;;;;;;4979579;28;20733;-94
2022/01/24 11:30:21;;;;;;;28.03;6.93;;;2.20;99.90;;;;;;4980649;28;20305;-94
2022/01/24 11:32:54;;;;;;;49.83;6.77;;;2.20;99.90;;;;;;4980599;28;20242;-94
2022/01/24 11:35:35;;;;;;;27.07;6.97;;;2.20;99.90;;;;;;4983738;28;20211;-93
2022/01/24 11:38:09;;;;;;;24.67;6.13;;;2.30;99.90;;;;;;4982859;28;20207;-93
2022/01/24 11:40:48;;;;;;;51.87;7.00;;;2.30;99.90;;;;;;4982673;28;20211;-94
2022/01/24 11:43:34;;;;;;;24.23;6.60;;;2.30;99.90;;;;;;4983157;28;20207;-94
2022/01/24 11:46:08;;;;;;;16.37;5.60;;;2.30;99.90;;;;;;4967380;28;20211;-94
2022/01/24 11:48:41;;;;;;;8.87;5.43;;;2.40;99.90;;;;;;5002488;28;20225;-93
2022/01/24 11:51:13;;;;;;;11.27;6.10;;;2.40;99.90;;;;;;5002689;28;20612;-94
2022/01/24 11:53:48;;;;;;;8.83;6.03;;;2.40;99.90;;;;;;4986610;28;20329;-94
2022/01/24 11:56:22;;;;;;;8.63;5.43;;;2.40;99.90;;;;;;5004462;28;20237;-93
2022/01/24 11:59:22;;;;;;;8.47;5.53;;;2.40;99.90;;;;;;5003615;28;20282;-93
2022/01/24 12:02:11;;;;;;;10.17;5.37;;;2.40;99.90;;;;;;5019905;28;20206;-94
2022/01/24 12:04:53;;;;;;;10.40;5.80;;;2.40;99.90;;;;;;5019689;28;20234;-94
2022/01/24 12:07:26;;;;;;;10.93;6.63;;;2.50;99.90;;;;;;5018470;28;20197;-94
2022/01/24 12:10:18;;;;;;;9.47;5.97;;;2.50;99.90;;;;;;4980476;28;20204;-93
2022/01/24 12:12:51;;;;;;;9.97;6.50;;;2.50;99.90;;;;;;4968677;29;20258;-93
2022/01/24 12:15:57;;;;;;;10.10;6.30;;;2.50;99.90;;;;;;4963540;29;20208;-95
2022/01/24 12:19:02;;;;;;;15.03;6.70;;;2.50;99.90;;;;;;4963364;29;20239;-92
2022/01/24 12:21:35;;;;;;;14.80;6.53;;;2.40;99.90;;;;;;4905178;29;20213;-93
2022/01/24 12:24:10;;;;;;;11.87;6.93;;;2.50;99.90;;;;;;4902971;29;20240;-94
2022/01/24 12:26:46;;;;;;;13.77;7.43;;;2.50;99.90;;;;;;4937679;28;20206;-93
2022/01/24 12:29:19;;;;;;;11.67;6.90;;;2.50;99.90;;;;;;4964381;29;20212;-94
2022/01/24 12:31:54;;;;;;;16.00;6.27;;;2.50;99.90;;;;;;4962423;29;20247;-93
2022/01/24 12:34:31;;;;;;;13.87;7.03;;;2.50;99.90;;;;;;4961682;29;20235;-93
2022/01/24 12:37:13;;;;;;;15.63;7.67;;;2.60;99.90;;;;;;4961039;28;20243;-93
2022/01/24 12:39:52;;;;;;;20.53;8.00;;;2.60;99.90;;;;;;4962092;29;20246;-94
2022/01/24 12:42:35;;;;;;;15.60;7.20;;;2.30;99.90;;;;;;4961517;29;20215;-94
2022/01/24 12:48:11;;;;;;;19.97;8.33;;;2.30;99.90;;;;;;4961389;28;20219;-93
2022/01/24 12:50:48;;;;;;;18.63;8.33;;;2.40;99.90;;;;;;4960982;28;20324;-93
2022/01/24 12:53:20;;;;;;;16.50;8.43;;;2.50;99.90;;;;;;4963147;29;20657;-93
2022/01/24 12:55:59;;;;;;;36.87;8.47;;;2.50;99.90;;;;;;4973147;29;20290;-93
2022/01/24 12:58:35;;;;;;;21.97;9.07;;;2.40;99.90;;;;;;4970837;28;20211;-94
2022/01/24 13:01:23;;;;;;;38.27;9.00;;;2.50;99.90;;;;;;4962981;29;20231;-94
2022/01/24 13:03:58;;;;;;;24.43;8.03;;;2.50;99.90;;;;;;4963348;29;20216;-93
2022/01/24 13:06:31;;;;;;;23.40;8.73;;;2.50;99.90;;;;;;4963784;29;20289;-94
2022/01/24 13:09:04;;;;;;;22.53;7.70;;;2.50;99.90;;;;;;4962851;28;20215;-92
2022/01/24 13:11:46;;;;;;;50.23;8.80;;;2.60;99.90;;;;;;4962241;29;20300;-94
2022/01/24 13:14:22;;;;;;;67.93;10.23;;;2.70;99.90;;;;;;4961647;29;20258;-94
2022/01/24 13:22:42;;;;;;;61.30;8.77;;;2.70;99.90;;;;;;4962123;29;20215;-91
2022/01/24 13:25:15;;;;;;;38.73;7.70;;;2.70;99.90;;;;;;4963003;29;20215;-93
2022/01/24 13:27:49;;;;;;;57.57;7.80;;;2.70;99.90;;;;;;4962703;29;20210;-94
2022/01/24 13:30:24;;;;;;;67.63;7.53;;;2.70;99.90;;;;;;4965899;29;20242;-93
2022/01/24 13:32:58;;;;;;;64.43;7.60;;;2.70;99.90;;;;;;4979902;29;20195;-94
2022/01/24 13:35:33;;;;;;;94.43;8.60;;;2.70;99.90;;;;;;4979687;28;20225;-93
2022/01/24 13:38:08;;;;;;;50.03;6.83;;;2.60;99.90;;;;;;4984056;28;20241;-94
2022/01/24 13:40:52;;;;;;;65.10;7.10;;;2.60;99.90;;;;;;4999220;28;20206;-94
2022/01/24 13:43:38;;;;;;;54.13;6.77;;;2.60;99.90;;;;;;4984664;28;20991;-94
2022/01/24 13:46:11;;;;;;;71.93;7.10;;;2.60;99.90;;;;;;4982888;28;20250;-93
2022/01/24 13:48:48;;;;;;;63.43;8.00;;;2.50;99.90;;;;;;4998704;28;20222;-93
2022/01/24 13:51:25;;;;;;;86.60;8.23;;;2.40;99.90;;;;;;4998703;28;20198;-95
2022/01/24 13:53:58;;;;;;;58.00;7.40;;;2.40;99.90;;;;;;5013110;28;20248;-91
2022/01/24 13:56:32;;;;;;;69.97;7.53;;;2.40;99.90;;;;;;5014607;28;20241;-94
2022/01/24 13:59:18;;;;;;;40.70;7.73;;;2.30;99.90;;;;;;5013595;28;20316;-93
2022/01/24 14:02:09;;;;;;;56.23;8.10;;;2.20;99.90;;;;;;5016756;28;20216;-93
2022/01/24 14:04:42;;;;;;;90.50;9.37;;;2.30;99.90;;;;;;5015815;28;20222;-93
2022/01/24 14:07:16;;;;;;;50.50;7.77;;;2.40;99.90;;;;;;5015910;28;20241;-93
2022/01/24 14:09:49;;;;;;;76.77;8.23;;;2.40;99.90;;;;;;5017913;28;20218;-93
2022/01/24 14:12:24;;;;;;;91.07;8.30;;;2.50;99.90;;;;;;5017886;28;20257;-94
2022/01/24 14:15:03;;;;;;;87.17;8.53;;;2.50;99.90;;;;;;5017772;28;20229;-92
2022/01/24 14:17:43;;;;;;;64.60;8.10;;;2.50;99.90;;;;;;5017340;28;20209;-93
2022/01/24 14:20:18;;;;;;;85.00;9.10;;;2.50;99.90;;;;;;5017935;28;20190;-92
2022/01/24 14:22:53;;;;;;;82.43;8.67;;;2.50;99.90;;;;;;5001176;28;20214;-92
2022/01/24 14:25:26;;;;;;;148.83;10.70;;;2.60;99.90;;;;;;5016612;28;20193;-93
2022/01/24 14:28:03;;;;;;;74.83;9.20;;;2.60;99.90;;;;;;4999050;28;20221;-93
2022/01/24 14:30:42;;;;;;;90.00;9.70;;;2.60;99.90;;;;;;5013701;28;20294;-94
2022/01/24 14:33:16;;;;;;;83.57;9.33;;;2.60;99.90;;;;;;5008205;28;20218;-94
2022/01/24 14:35:55;;;;;;;78.50;9.50;;;2.60;99.90;;;;;;5009459;28;20265;-93
2022/01/24 14:38:37;;;;;;;69.00;10.50;;;2.60;99.90;;;;;;4995077;28;20214;-93
2022/01/24 14:41:09;;;;;;;81.63;10.17;;;2.70;99.90;;;;;;5029756;23;20246;-93
2022/01/24 14:46:34;;;;;;;55.77;10.40;;;2.70;99.90;;;;;;5000202;28;20667;-93
2022/01/24 14:49:07;;;;;;;63.87;9.83;;;2.70;99.90;;;;;;5000615;28;20581;-93
2022/01/24 14:51:39;;;;;;;60.13;9.30;;;2.70;99.90;;;;;;5000595;28;20265;-93
2022/01/24 14:54:14;;;;;;;65.43;8.97;;;2.70;99.90;;;;;;5002923;28;20705;-93
2022/01/24 14:56:49;;;;;;;66.23;8.70;;;2.70;99.90;;;;;;5000246;28;20238;-94